Saint Bernice, Indiana
Current Conditions -  °F | °C
As of 8:15 AM on Saturday 25 Oct 2014 (Local Time) from KPRG Reporting Station
Clear Clear  
Wind Chill: 53°   Ceiling: Unl
Heat Index: 53°   Visibility: 7mi
Dew Point: 53°   Wind: 3mph
Humidity: 97%   Direction: 270°W
Pressure: 29.99"   Gusts: NA
Location:  39.71°N, 87.52°W
Report Text: KPRG 251215Z AUTO 27003KT 7SM CLR 12/11 A2999 RMK AO2 T01190114
Loading
Personal Weather Stations






























Interactive Weather Map
Tropical Storm Tracking
New forecast layout! Learn more

10-Day Weather Forecast

Advertisements
Track Severe Weather on mobile